sensor_id;sensor_type;location;lat;lon;timestamp;P1;durP1;ratioP1;P2;durP2;ratioP2
40150;SDS011;25866;52.420;10.640;2022-12-18T00:00:53;21.13;;;12.67;;
40150;SDS011;25866;52.420;10.640;2022-12-18T00:03:21;22.93;;;13.03;;
40150;SDS011;25866;52.420;10.640;2022-12-18T00:05:49;21.10;;;12.03;;
40150;SDS011;25866;52.420;10.640;2022-12-18T00:08:16;21.73;;;12.10;;
40150;SDS011;25866;52.420;10.640;2022-12-18T00:10:43;25.37;;;12.33;;
40150;SDS011;25866;52.420;10.640;2022-12-18T00:13:15;22.97;;;12.03;;
40150;SDS011;25866;52.420;10.640;2022-12-18T00:15:41;23.30;;;12.00;;
40150;SDS011;25866;52.420;10.640;2022-12-18T00:18:07;19.83;;;11.07;;
40150;SDS011;25866;52.420;10.640;2022-12-18T00:20:36;22.73;;;12.60;;
40150;SDS011;25866;52.420;10.640;2022-12-18T00:23:03;21.93;;;11.90;;
40150;SDS011;25866;52.420;10.640;2022-12-18T00:25:31;22.80;;;13.10;;
40150;SDS011;25866;52.420;10.640;2022-12-18T00:27:59;22.53;;;13.10;;
40150;SDS011;25866;52.420;10.640;2022-12-18T00:30:24;25.30;;;12.07;;
40150;SDS011;25866;52.420;10.640;2022-12-18T00:32:50;22.33;;;12.10;;
40150;SDS011;25866;52.420;10.640;2022-12-18T00:35:21;22.83;;;12.20;;
40150;SDS011;25866;52.420;10.640;2022-12-18T00:37:47;22.10;;;12.03;;
40150;SDS011;25866;52.420;10.640;2022-12-18T00:40:12;20.37;;;11.37;;
40150;SDS011;25866;52.420;10.640;2022-12-18T00:42:38;21.87;;;12.80;;
40150;SDS011;25866;52.420;10.640;2022-12-18T00:45:23;22.13;;;12.13;;
40150;SDS011;25866;52.420;10.640;2022-12-18T00:47:54;21.80;;;12.40;;
40150;SDS011;25866;52.420;10.640;2022-12-18T00:50:21;25.20;;;12.87;;
40150;SDS011;25866;52.420;10.640;2022-12-18T00:52:48;19.27;;;11.07;;
40150;SDS011;25866;52.420;10.640;2022-12-18T00:55:14;19.40;;;11.43;;
40150;SDS011;25866;52.420;10.640;2022-12-18T00:57:43;21.17;;;11.97;;
40150;SDS011;25866;52.420;10.640;2022-12-18T01:00:11;21.87;;;12.27;;
40150;SDS011;25866;52.420;10.640;2022-12-18T01:02:39;21.37;;;11.47;;
40150;SDS011;25866;52.420;10.640;2022-12-18T01:05:05;23.77;;;12.43;;
40150;SDS011;25866;52.420;10.640;2022-12-18T01:07:34;23.97;;;12.80;;
40150;SDS011;25866;52.420;10.640;2022-12-18T01:10:00;23.87;;;12.57;;
40150;SDS011;25866;52.420;10.640;2022-12-18T01:12:25;19.70;;;11.60;;
40150;SDS011;25866;52.420;10.640;2022-12-18T01:14:51;19.63;;;11.20;;
40150;SDS011;25866;52.420;10.640;2022-12-18T01:17:17;22.07;;;11.87;;
40150;SDS011;25866;52.420;10.640;2022-12-18T01:19:43;20.43;;;12.10;;
40150;SDS011;25866;52.420;10.640;2022-12-18T01:22:08;19.77;;;10.70;;
40150;SDS011;25866;52.420;10.640;2022-12-18T01:24:34;23.00;;;12.20;;
40150;SDS011;25866;52.420;10.640;2022-12-18T01:27:00;21.30;;;11.53;;
40150;SDS011;25866;52.420;10.640;2022-12-18T01:29:25;22.23;;;11.37;;
40150;SDS011;25866;52.420;10.640;2022-12-18T01:31:54;26.07;;;10.50;;
40150;SDS011;25866;52.420;10.640;2022-12-18T01:34:21;22.00;;;11.80;;
40150;SDS011;25866;52.420;10.640;2022-12-18T01:36:49;26.53;;;12.50;;
40150;SDS011;25866;52.420;10.640;2022-12-18T01:39:17;20.03;;;11.93;;
40150;SDS011;25866;52.420;10.640;2022-12-18T01:41:43;21.40;;;11.13;;
40150;SDS011;25866;52.420;10.640;2022-12-18T01:47:43;25.57;;;11.20;;
40150;SDS011;25866;52.420;10.640;2022-12-18T01:50:18;19.83;;;10.27;;
40150;SDS011;25866;52.420;10.640;2022-12-18T01:53:03;17.97;;;10.30;;
40150;SDS011;25866;52.420;10.640;2022-12-18T01:55:42;23.10;;;11.77;;
40150;SDS011;25866;52.420;10.640;2022-12-18T01:58:14;17.93;;;9.30;;
40150;SDS011;25866;52.420;10.640;2022-12-18T02:00:42;16.17;;;9.53;;
40150;SDS011;25866;52.420;10.640;2022-12-18T02:03:07;20.30;;;11.67;;
40150;SDS011;25866;52.420;10.640;2022-12-18T02:05:40;18.83;;;10.47;;
40150;SDS011;25866;52.420;10.640;2022-12-18T02:08:23;18.63;;;10.20;;
40150;SDS011;25866;52.420;10.640;2022-12-18T02:19:21;18.97;;;11.07;;
40150;SDS011;25866;52.420;10.640;2022-12-18T02:22:07;20.90;;;10.90;;
40150;SDS011;25866;52.420;10.640;2022-12-18T02:27:55;17.37;;;10.27;;
40150;SDS011;25866;52.420;10.640;2022-12-18T02:30:25;21.40;;;9.77;;
40150;SDS011;25866;52.420;10.640;2022-12-18T02:32:54;22.87;;;10.80;;
40150;SDS011;25866;52.420;10.640;2022-12-18T02:35:26;18.97;;;11.10;;
40150;SDS011;25866;52.420;10.640;2022-12-18T02:37:56;20.43;;;11.20;;
40150;SDS011;25866;52.420;10.640;2022-12-18T02:40:24;23.23;;;11.53;;
40150;SDS011;25866;52.420;10.640;2022-12-18T02:42:52;19.87;;;10.83;;
40150;SDS011;25866;52.420;10.640;2022-12-18T02:45:18;17.13;;;9.97;;
40150;SDS011;25866;52.420;10.640;2022-12-18T02:47:47;17.80;;;10.53;;
40150;SDS011;25866;52.420;10.640;2022-12-18T02:50:18;21.13;;;10.17;;
40150;SDS011;25866;52.420;10.640;2022-12-18T03:04:26;18.90;;;9.83;;
40150;SDS011;25866;52.420;10.640;2022-12-18T03:07:01;17.50;;;10.07;;
40150;SDS011;25866;52.420;10.640;2022-12-18T03:09:40;17.03;;;8.97;;
40150;SDS011;25866;52.420;10.640;2022-12-18T03:12:10;18.43;;;9.77;;
40150;SDS011;25866;52.420;10.640;2022-12-18T03:14:50;18.67;;;9.17;;
40150;SDS011;25866;52.420;10.640;2022-12-18T03:17:25;20.87;;;10.10;;
40150;SDS011;25866;52.420;10.640;2022-12-18T03:19:53;15.47;;;9.37;;
40150;SDS011;25866;52.420;10.640;2022-12-18T03:22:22;15.83;;;9.87;;
40150;SDS011;25866;52.420;10.640;2022-12-18T03:24:49;16.40;;;9.77;;
40150;SDS011;25866;52.420;10.640;2022-12-18T03:27:18;18.53;;;10.50;;
40150;SDS011;25866;52.420;10.640;2022-12-18T03:29:52;17.43;;;10.47;;
40150;SDS011;25866;52.420;10.640;2022-12-18T03:32:33;19.13;;;10.40;;
40150;SDS011;25866;52.420;10.640;2022-12-18T03:35:05;20.80;;;10.10;;
40150;SDS011;25866;52.420;10.640;2022-12-18T03:40:03;18.73;;;10.30;;
40150;SDS011;25866;52.420;10.640;2022-12-18T03:42:49;23.20;;;10.87;;
40150;SDS011;25866;52.420;10.640;2022-12-18T03:45:28;18.37;;;10.43;;
40150;SDS011;25866;52.420;10.640;2022-12-18T03:53:19;19.20;;;9.80;;
40150;SDS011;25866;52.420;10.640;2022-12-18T03:56:01;20.07;;;10.37;;
40150;SDS011;25866;52.420;10.640;2022-12-18T03:58:30;20.87;;;11.13;;
40150;SDS011;25866;52.420;10.640;2022-12-18T04:00:58;19.57;;;11.23;;
40150;SDS011;25866;52.420;10.640;2022-12-18T04:03:28;19.43;;;10.17;;
40150;SDS011;25866;52.420;10.640;2022-12-18T04:05:57;21.30;;;9.80;;
40150;SDS011;25866;52.420;10.640;2022-12-18T04:08:24;18.73;;;9.77;;
40150;SDS011;25866;52.420;10.640;2022-12-18T04:10:51;17.80;;;10.07;;
40150;SDS011;25866;52.420;10.640;2022-12-18T04:13:24;19.27;;;10.27;;
40150;SDS011;25866;52.420;10.640;2022-12-18T04:15:53;21.03;;;9.93;;
40150;SDS011;25866;52.420;10.640;2022-12-18T04:18:19;19.80;;;10.63;;
40150;SDS011;25866;52.420;10.640;2022-12-18T04:20:45;16.13;;;9.83;;
40150;SDS011;25866;52.420;10.640;2022-12-18T04:23:11;15.60;;;9.27;;
40150;SDS011;25866;52.420;10.640;2022-12-18T04:25:36;19.13;;;10.67;;
40150;SDS011;25866;52.420;10.640;2022-12-18T04:28:08;17.97;;;9.80;;
40150;SDS011;25866;52.420;10.640;2022-12-18T04:30:34;19.40;;;10.53;;
40150;SDS011;25866;52.420;10.640;2022-12-18T04:33:00;19.03;;;10.17;;
40150;SDS011;25866;52.420;10.640;2022-12-18T04:35:26;20.80;;;10.97;;
40150;SDS011;25866;52.420;10.640;2022-12-18T04:37:53;17.40;;;9.60;;
40150;SDS011;25866;52.420;10.640;2022-12-18T04:40:18;21.70;;;11.20;;
40150;SDS011;25866;52.420;10.640;2022-12-18T04:42:44;21.80;;;11.00;;
40150;SDS011;25866;52.420;10.640;2022-12-18T04:45:10;20.83;;;11.50;;
40150;SDS011;25866;52.420;10.640;2022-12-18T04:47:36;24.03;;;11.20;;
40150;SDS011;25866;52.420;10.640;2022-12-18T04:50:01;16.93;;;10.33;;
40150;SDS011;25866;52.420;10.640;2022-12-18T04:52:27;27.70;;;12.43;;
40150;SDS011;25866;52.420;10.640;2022-12-18T04:54:53;26.80;;;13.23;;
40150;SDS011;25866;52.420;10.640;2022-12-18T04:57:19;22.67;;;12.37;;
40150;SDS011;25866;52.420;10.640;2022-12-18T04:59:46;24.50;;;11.97;;
40150;SDS011;25866;52.420;10.640;2022-12-18T05:02:11;21.23;;;11.97;;
40150;SDS011;25866;52.420;10.640;2022-12-18T05:04:37;24.77;;;13.00;;
40150;SDS011;25866;52.420;10.640;2022-12-18T05:07:03;22.57;;;12.73;;
40150;SDS011;25866;52.420;10.640;2022-12-18T05:09:29;21.83;;;10.80;;
40150;SDS011;25866;52.420;10.640;2022-12-18T05:11:55;20.53;;;11.97;;
40150;SDS011;25866;52.420;10.640;2022-12-18T05:14:20;20.30;;;10.70;;
40150;SDS011;25866;52.420;10.640;2022-12-18T05:16:46;20.47;;;10.93;;
40150;SDS011;25866;52.420;10.640;2022-12-18T05:19:14;23.43;;;12.50;;
40150;SDS011;25866;52.420;10.640;2022-12-18T05:21:40;20.53;;;11.43;;
40150;SDS011;25866;52.420;10.640;2022-12-18T05:24:06;19.17;;;10.63;;
40150;SDS011;25866;52.420;10.640;2022-12-18T05:26:31;18.73;;;11.83;;
40150;SDS011;25866;52.420;10.640;2022-12-18T05:28:57;20.80;;;11.30;;
40150;SDS011;25866;52.420;10.640;2022-12-18T05:31:23;19.37;;;10.50;;
40150;SDS011;25866;52.420;10.640;2022-12-18T05:33:49;23.57;;;12.50;;
40150;SDS011;25866;52.420;10.640;2022-12-18T05:36:14;25.07;;;12.33;;
40150;SDS011;25866;52.420;10.640;2022-12-18T05:38:41;22.73;;;12.30;;
40150;SDS011;25866;52.420;10.640;2022-12-18T05:41:08;24.17;;;11.80;;
40150;SDS011;25866;52.420;10.640;2022-12-18T05:43:35;22.73;;;11.73;;
40150;SDS011;25866;52.420;10.640;2022-12-18T05:46:05;22.27;;;11.90;;
40150;SDS011;25866;52.420;10.640;2022-12-18T05:48:34;21.07;;;11.63;;
40150;SDS011;25866;52.420;10.640;2022-12-18T05:51:07;25.50;;;13.03;;
40150;SDS011;25866;52.420;10.640;2022-12-18T05:53:34;20.07;;;11.23;;
40150;SDS011;25866;52.420;10.640;2022-12-18T05:56:02;24.57;;;11.27;;
40150;SDS011;25866;52.420;10.640;2022-12-18T05:58:29;24.83;;;12.20;;
40150;SDS011;25866;52.420;10.640;2022-12-18T06:00:55;21.80;;;11.50;;
40150;SDS011;25866;52.420;10.640;2022-12-18T06:03:22;20.97;;;11.73;;
40150;SDS011;25866;52.420;10.640;2022-12-18T06:05:47;22.30;;;11.33;;
40150;SDS011;25866;52.420;10.640;2022-12-18T06:08:13;20.33;;;10.80;;
40150;SDS011;25866;52.420;10.640;2022-12-18T06:10:49;19.50;;;11.23;;
40150;SDS011;25866;52.420;10.640;2022-12-18T06:13:17;18.67;;;10.90;;
40150;SDS011;25866;52.420;10.640;2022-12-18T06:15:44;19.03;;;10.33;;
40150;SDS011;25866;52.420;10.640;2022-12-18T06:18:09;24.73;;;11.40;;
40150;SDS011;25866;52.420;10.640;2022-12-18T06:20:37;24.80;;;12.50;;
40150;SDS011;25866;52.420;10.640;2022-12-18T06:23:05;20.63;;;11.67;;
40150;SDS011;25866;52.420;10.640;2022-12-18T06:25:31;21.40;;;11.60;;
40150;SDS011;25866;52.420;10.640;2022-12-18T06:27:58;27.90;;;10.40;;
40150;SDS011;25866;52.420;10.640;2022-12-18T06:30:23;20.30;;;9.83;;
40150;SDS011;25866;52.420;10.640;2022-12-18T06:32:49;21.63;;;11.63;;
40150;SDS011;25866;52.420;10.640;2022-12-18T06:35:16;21.40;;;12.27;;
40150;SDS011;25866;52.420;10.640;2022-12-18T06:37:42;19.10;;;9.60;;
40150;SDS011;25866;52.420;10.640;2022-12-18T06:40:09;18.00;;;10.50;;
40150;SDS011;25866;52.420;10.640;2022-12-18T06:42:35;19.53;;;10.53;;
40150;SDS011;25866;52.420;10.640;2022-12-18T06:45:01;25.90;;;11.27;;
40150;SDS011;25866;52.420;10.640;2022-12-18T06:47:27;18.03;;;10.10;;
40150;SDS011;25866;52.420;10.640;2022-12-18T06:49:54;18.80;;;10.67;;
40150;SDS011;25866;52.420;10.640;2022-12-18T06:52:20;20.37;;;11.33;;
40150;SDS011;25866;52.420;10.640;2022-12-18T06:54:45;25.00;;;12.10;;
40150;SDS011;25866;52.420;10.640;2022-12-18T06:57:11;15.80;;;9.67;;
40150;SDS011;25866;52.420;10.640;2022-12-18T06:59:39;20.03;;;10.23;;
40150;SDS011;25866;52.420;10.640;2022-12-18T07:02:05;21.17;;;9.40;;
40150;SDS011;25866;52.420;10.640;2022-12-18T07:04:31;21.00;;;10.13;;
40150;SDS011;25866;52.420;10.640;2022-12-18T07:06:56;20.60;;;9.67;;
40150;SDS011;25866;52.420;10.640;2022-12-18T07:09:24;19.47;;;9.73;;
40150;SDS011;25866;52.420;10.640;2022-12-18T07:11:50;20.93;;;10.60;;
40150;SDS011;25866;52.420;10.640;2022-12-18T07:14:16;16.43;;;9.60;;
40150;SDS011;25866;52.420;10.640;2022-12-18T07:16:41;21.20;;;10.63;;
40150;SDS011;25866;52.420;10.640;2022-12-18T07:19:07;19.27;;;10.17;;
40150;SDS011;25866;52.420;10.640;2022-12-18T07:21:33;16.27;;;9.43;;
40150;SDS011;25866;52.420;10.640;2022-12-18T07:23:59;22.87;;;10.10;;
40150;SDS011;25866;52.420;10.640;2022-12-18T07:26:24;25.33;;;10.93;;
40150;SDS011;25866;52.420;10.640;2022-12-18T07:28:54;21.10;;;10.70;;
40150;SDS011;25866;52.420;10.640;2022-12-18T07:31:22;18.77;;;9.70;;
40150;SDS011;25866;52.420;10.640;2022-12-18T07:33:49;17.30;;;10.30;;
40150;SDS011;25866;52.420;10.640;2022-12-18T07:36:16;16.23;;;9.33;;
40150;SDS011;25866;52.420;10.640;2022-12-18T07:38:42;17.43;;;9.67;;
40150;SDS011;25866;52.420;10.640;2022-12-18T07:41:13;19.17;;;10.57;;
40150;SDS011;25866;52.420;10.640;2022-12-18T07:43:40;19.37;;;9.37;;
40150;SDS011;25866;52.420;10.640;2022-12-18T07:46:06;22.07;;;11.23;;
40150;SDS011;25866;52.420;10.640;2022-12-18T07:48:33;23.13;;;10.77;;
40150;SDS011;25866;52.420;10.640;2022-12-18T07:51:01;20.30;;;10.97;;
40150;SDS011;25866;52.420;10.640;2022-12-18T07:53:30;18.20;;;9.40;;
40150;SDS011;25866;52.420;10.640;2022-12-18T07:55:57;17.57;;;10.00;;
40150;SDS011;25866;52.420;10.640;2022-12-18T07:58:24;22.63;;;11.63;;
40150;SDS011;25866;52.420;10.640;2022-12-18T08:00:50;20.60;;;11.37;;
40150;SDS011;25866;52.420;10.640;2022-12-18T08:03:17;17.37;;;10.47;;
40150;SDS011;25866;52.420;10.640;2022-12-18T08:05:43;20.03;;;11.23;;
40150;SDS011;25866;52.420;10.640;2022-12-18T08:08:09;22.83;;;12.20;;
40150;SDS011;25866;52.420;10.640;2022-12-18T08:10:37;17.40;;;10.10;;
40150;SDS011;25866;52.420;10.640;2022-12-18T08:13:03;22.50;;;11.50;;
40150;SDS011;25866;52.420;10.640;2022-12-18T08:15:28;22.30;;;10.57;;
40150;SDS011;25866;52.420;10.640;2022-12-18T08:17:57;21.27;;;11.30;;
40150;SDS011;25866;52.420;10.640;2022-12-18T08:20:24;19.43;;;11.00;;
40150;SDS011;25866;52.420;10.640;2022-12-18T08:22:50;19.73;;;11.10;;
40150;SDS011;25866;52.420;10.640;2022-12-18T08:25:15;20.23;;;11.70;;
40150;SDS011;25866;52.420;10.640;2022-12-18T08:27:41;20.20;;;10.20;;
40150;SDS011;25866;52.420;10.640;2022-12-18T08:30:13;21.10;;;10.30;;
40150;SDS011;25866;52.420;10.640;2022-12-18T08:32:39;17.70;;;10.97;;
40150;SDS011;25866;52.420;10.640;2022-12-18T08:35:05;19.80;;;10.10;;
40150;SDS011;25866;52.420;10.640;2022-12-18T08:37:31;20.07;;;9.90;;
40150;SDS011;25866;52.420;10.640;2022-12-18T08:39:57;15.97;;;10.00;;
40150;SDS011;25866;52.420;10.640;2022-12-18T08:42:23;17.27;;;9.63;;
40150;SDS011;25866;52.420;10.640;2022-12-18T08:45:07;18.10;;;9.83;;
40150;SDS011;25866;52.420;10.640;2022-12-18T08:47:33;16.10;;;9.57;;
40150;SDS011;25866;52.420;10.640;2022-12-18T08:49:59;14.83;;;8.80;;
40150;SDS011;25866;52.420;10.640;2022-12-18T08:52:25;20.27;;;9.73;;
40150;SDS011;25866;52.420;10.640;2022-12-18T08:54:51;19.80;;;10.70;;
40150;SDS011;25866;52.420;10.640;2022-12-18T08:57:16;38.93;;;18.70;;
40150;SDS011;25866;52.420;10.640;2022-12-18T08:59:42;42.13;;;19.13;;
40150;SDS011;25866;52.420;10.640;2022-12-18T09:02:09;33.73;;;16.40;;
40150;SDS011;25866;52.420;10.640;2022-12-18T09:04:36;29.23;;;14.80;;
40150;SDS011;25866;52.420;10.640;2022-12-18T09:07:02;28.00;;;14.40;;
40150;SDS011;25866;52.420;10.640;2022-12-18T09:09:27;24.70;;;12.77;;
40150;SDS011;25866;52.420;10.640;2022-12-18T09:14:24;39.53;;;20.13;;
40150;SDS011;25866;52.420;10.640;2022-12-18T09:16:50;38.73;;;19.07;;
40150;SDS011;25866;52.420;10.640;2022-12-18T09:19:22;23.57;;;13.33;;
40150;SDS011;25866;52.420;10.640;2022-12-18T09:21:50;20.93;;;11.77;;
40150;SDS011;25866;52.420;10.640;2022-12-18T09:24:15;23.03;;;11.40;;
40150;SDS011;25866;52.420;10.640;2022-12-18T09:26:42;20.33;;;11.73;;
40150;SDS011;25866;52.420;10.640;2022-12-18T09:29:07;25.80;;;12.20;;
40150;SDS011;25866;52.420;10.640;2022-12-18T09:31:35;23.97;;;13.53;;
40150;SDS011;25866;52.420;10.640;2022-12-18T09:34:04;27.40;;;13.23;;
40150;SDS011;25866;52.420;10.640;2022-12-18T09:36:30;19.60;;;11.73;;
40150;SDS011;25866;52.420;10.640;2022-12-18T09:38:55;25.60;;;12.93;;
40150;SDS011;25866;52.420;10.640;2022-12-18T09:44:32;24.50;;;13.23;;
40150;SDS011;25866;52.420;10.640;2022-12-18T09:47:16;24.23;;;11.67;;
40150;SDS011;25866;52.420;10.640;2022-12-18T09:49:53;27.47;;;12.80;;
40150;SDS011;25866;52.420;10.640;2022-12-18T09:52:35;24.50;;;13.40;;
40150;SDS011;25866;52.420;10.640;2022-12-18T09:57:55;22.90;;;12.83;;
40150;SDS011;25866;52.420;10.640;2022-12-18T10:00:37;21.03;;;11.67;;
40150;SDS011;25866;52.420;10.640;2022-12-18T10:03:13;29.13;;;13.20;;
40150;SDS011;25866;52.420;10.640;2022-12-18T10:06:44;24.07;;;12.00;;
40150;SDS011;25866;52.420;10.640;2022-12-18T10:19:45;19.60;;;11.30;;
40150;SDS011;25866;52.420;10.640;2022-12-18T10:25:25;20.93;;;10.77;;
40150;SDS011;25866;52.420;10.640;2022-12-18T10:27:57;22.47;;;13.00;;
40150;SDS011;25866;52.420;10.640;2022-12-18T10:30:29;19.63;;;11.23;;
40150;SDS011;25866;52.420;10.640;2022-12-18T10:33:00;21.77;;;11.37;;
40150;SDS011;25866;52.420;10.640;2022-12-18T10:35:27;23.70;;;12.20;;
40150;SDS011;25866;52.420;10.640;2022-12-18T10:38:27;22.07;;;11.70;;
40150;SDS011;25866;52.420;10.640;2022-12-18T10:40:56;20.33;;;10.87;;
40150;SDS011;25866;52.420;10.640;2022-12-18T10:43:42;19.83;;;12.43;;
40150;SDS011;25866;52.420;10.640;2022-12-18T10:48:36;21.43;;;11.90;;
40150;SDS011;25866;52.420;10.640;2022-12-18T10:51:07;25.70;;;13.07;;
40150;SDS011;25866;52.420;10.640;2022-12-18T10:53:34;24.27;;;11.97;;
40150;SDS011;25866;52.420;10.640;2022-12-18T10:56:02;17.57;;;10.53;;
40150;SDS011;25866;52.420;10.640;2022-12-18T10:58:31;16.50;;;9.47;;
40150;SDS011;25866;52.420;10.640;2022-12-18T11:01:03;17.20;;;9.43;;
40150;SDS011;25866;52.420;10.640;2022-12-18T11:03:31;16.30;;;8.73;;
40150;SDS011;25866;52.420;10.640;2022-12-18T11:06:04;18.20;;;9.53;;
40150;SDS011;25866;52.420;10.640;2022-12-18T11:08:41;14.20;;;8.10;;
40150;SDS011;25866;52.420;10.640;2022-12-18T11:11:15;17.47;;;8.40;;
40150;SDS011;25866;52.420;10.640;2022-12-18T11:14:21;17.83;;;9.27;;
40150;SDS011;25866;52.420;10.640;2022-12-18T11:16:59;19.10;;;10.97;;
40150;SDS011;25866;52.420;10.640;2022-12-18T11:19:33;18.93;;;10.40;;
40150;SDS011;25866;52.420;10.640;2022-12-18T11:22:01;20.30;;;10.73;;
40150;SDS011;25866;52.420;10.640;2022-12-18T11:27:32;25.03;;;14.37;;
40150;SDS011;25866;52.420;10.640;2022-12-18T11:30:32;25.07;;;14.33;;
40150;SDS011;25866;52.420;10.640;2022-12-18T11:32:53;24.13;;;13.93;;
40150;SDS011;25866;52.420;10.640;2022-12-18T11:35:30;25.53;;;14.37;;
40150;SDS011;25866;52.420;10.640;2022-12-18T11:38:45;25.33;;;14.17;;
40150;SDS011;25866;52.420;10.640;2022-12-18T11:44:27;17.87;;;9.93;;
40150;SDS011;25866;52.420;10.640;2022-12-18T11:47:03;17.47;;;9.93;;
40150;SDS011;25866;52.420;10.640;2022-12-18T11:49:37;25.07;;;12.03;;
40150;SDS011;25866;52.420;10.640;2022-12-18T11:54:46;19.37;;;8.30;;
40150;SDS011;25866;52.420;10.640;2022-12-18T12:05:25;15.60;;;8.10;;
40150;SDS011;25866;52.420;10.640;2022-12-18T12:08:33;12.27;;;6.50;;
40150;SDS011;25866;52.420;10.640;2022-12-18T12:16:37;20.53;;;10.77;;
40150;SDS011;25866;52.420;10.640;2022-12-18T12:21:52;28.13;;;13.17;;
40150;SDS011;25866;52.420;10.640;2022-12-18T12:24:33;20.50;;;11.30;;
40150;SDS011;25866;52.420;10.640;2022-12-18T12:27:22;22.27;;;12.37;;
40150;SDS011;25866;52.420;10.640;2022-12-18T12:30:18;19.10;;;11.07;;
40150;SDS011;25866;52.420;10.640;2022-12-18T12:35:28;21.50;;;11.70;;
40150;SDS011;25866;52.420;10.640;2022-12-18T12:38:17;23.20;;;11.40;;
40150;SDS011;25866;52.420;10.640;2022-12-18T12:40:58;21.73;;;10.60;;
40150;SDS011;25866;52.420;10.640;2022-12-18T12:46:04;22.60;;;10.63;;
40150;SDS011;25866;52.420;10.640;2022-12-18T12:51:21;15.77;;;6.83;;
40150;SDS011;25866;52.420;10.640;2022-12-18T12:54:00;11.23;;;6.20;;
40150;SDS011;25866;52.420;10.640;2022-12-18T12:56:46;14.23;;;7.17;;
40150;SDS011;25866;52.420;10.640;2022-12-18T12:59:37;11.77;;;7.00;;
40150;SDS011;25866;52.420;10.640;2022-12-18T13:14:28;21.77;;;9.40;;
40150;SDS011;25866;52.420;10.640;2022-12-18T13:20:05;15.83;;;9.33;;
40150;SDS011;25866;52.420;10.640;2022-12-18T13:22:48;19.40;;;9.23;;
40150;SDS011;25866;52.420;10.640;2022-12-18T13:25:28;17.13;;;9.60;;
40150;SDS011;25866;52.420;10.640;2022-12-18T13:28:08;18.33;;;9.53;;
40150;SDS011;25866;52.420;10.640;2022-12-18T13:30:44;20.67;;;9.73;;
40150;SDS011;25866;52.420;10.640;2022-12-18T13:35:50;16.47;;;9.13;;
40150;SDS011;25866;52.420;10.640;2022-12-18T13:41:00;18.70;;;9.63;;
40150;SDS011;25866;52.420;10.640;2022-12-18T13:46:02;18.03;;;9.33;;
40150;SDS011;25866;52.420;10.640;2022-12-18T13:48:32;13.47;;;8.37;;
40150;SDS011;25866;52.420;10.640;2022-12-18T13:51:05;20.63;;;9.47;;
40150;SDS011;25866;52.420;10.640;2022-12-18T13:56:33;12.57;;;8.20;;
40150;SDS011;25866;52.420;10.640;2022-12-18T13:59:06;17.03;;;8.53;;
40150;SDS011;25866;52.420;10.640;2022-12-18T14:01:42;13.97;;;7.03;;
40150;SDS011;25866;52.420;10.640;2022-12-18T14:06:49;10.67;;;6.00;;
40150;SDS011;25866;52.420;10.640;2022-12-18T14:09:20;12.80;;;7.40;;
40150;SDS011;25866;52.420;10.640;2022-12-18T14:11:51;16.40;;;7.13;;
40150;SDS011;25866;52.420;10.640;2022-12-18T14:14:45;12.30;;;6.93;;
40150;SDS011;25866;52.420;10.640;2022-12-18T14:17:14;13.67;;;7.50;;
40150;SDS011;25866;52.420;10.640;2022-12-18T14:19:41;13.97;;;7.23;;
40150;SDS011;25866;52.420;10.640;2022-12-18T14:22:14;16.30;;;6.57;;
40150;SDS011;25866;52.420;10.640;2022-12-18T14:25:04;12.90;;;7.07;;
40150;SDS011;25866;52.420;10.640;2022-12-18T14:28:01;11.60;;;6.10;;
40150;SDS011;25866;52.420;10.640;2022-12-18T14:30:38;15.07;;;7.87;;
40150;SDS011;25866;52.420;10.640;2022-12-18T14:35:41;13.97;;;7.40;;
40150;SDS011;25866;52.420;10.640;2022-12-18T14:41:31;15.77;;;8.33;;
40150;SDS011;25866;52.420;10.640;2022-12-18T14:43:40;15.37;;;7.47;;
40150;SDS011;25866;52.420;10.640;2022-12-18T14:51:50;15.07;;;7.90;;
40150;SDS011;25866;52.420;10.640;2022-12-18T14:54:19;10.27;;;7.03;;
40150;SDS011;25866;52.420;10.640;2022-12-18T14:56:47;14.00;;;7.00;;
40150;SDS011;25866;52.420;10.640;2022-12-18T14:59:17;14.20;;;7.57;;
40150;SDS011;25866;52.420;10.640;2022-12-18T15:04:29;13.80;;;7.23;;
40150;SDS011;25866;52.420;10.640;2022-12-18T15:07:14;13.33;;;7.77;;
40150;SDS011;25866;52.420;10.640;2022-12-18T15:10:02;14.73;;;7.70;;
40150;SDS011;25866;52.420;10.640;2022-12-18T15:12:47;13.13;;;7.40;;
40150;SDS011;25866;52.420;10.640;2022-12-18T15:18:04;15.53;;;7.83;;
40150;SDS011;25866;52.420;10.640;2022-12-18T15:20:47;14.03;;;7.57;;
40150;SDS011;25866;52.420;10.640;2022-12-18T15:23:25;12.23;;;7.43;;
40150;SDS011;25866;52.420;10.640;2022-12-18T15:26:11;11.07;;;7.17;;
40150;SDS011;25866;52.420;10.640;2022-12-18T15:28:50;11.10;;;7.27;;
40150;SDS011;25866;52.420;10.640;2022-12-18T15:31:22;13.77;;;7.67;;
40150;SDS011;25866;52.420;10.640;2022-12-18T15:36:23;12.87;;;7.13;;
40150;SDS011;25866;52.420;10.640;2022-12-18T15:38:50;13.97;;;7.63;;
40150;SDS011;25866;52.420;10.640;2022-12-18T15:41:19;11.13;;;6.43;;
40150;SDS011;25866;52.420;10.640;2022-12-18T15:43:50;13.40;;;7.30;;
40150;SDS011;25866;52.420;10.640;2022-12-18T15:46:21;14.00;;;6.47;;
40150;SDS011;25866;52.420;10.640;2022-12-18T15:48:49;15.10;;;6.97;;
40150;SDS011;25866;52.420;10.640;2022-12-18T15:53:45;10.67;;;6.07;;
40150;SDS011;25866;52.420;10.640;2022-12-18T15:56:13;14.70;;;6.87;;
40150;SDS011;25866;52.420;10.640;2022-12-18T15:58:58;10.83;;;6.80;;
40150;SDS011;25866;52.420;10.640;2022-12-18T16:01:26;10.10;;;5.93;;
40150;SDS011;25866;52.420;10.640;2022-12-18T16:03:54;12.10;;;6.23;;
40150;SDS011;25866;52.420;10.640;2022-12-18T16:06:21;10.03;;;5.73;;
40150;SDS011;25866;52.420;10.640;2022-12-18T16:08:48;10.70;;;6.10;;
40150;SDS011;25866;52.420;10.640;2022-12-18T16:11:24;11.03;;;7.33;;
40150;SDS011;25866;52.420;10.640;2022-12-18T16:16:47;13.17;;;6.40;;
40150;SDS011;25866;52.420;10.640;2022-12-18T16:19:15;12.80;;;5.67;;
40150;SDS011;25866;52.420;10.640;2022-12-18T16:21:41;11.30;;;5.43;;
40150;SDS011;25866;52.420;10.640;2022-12-18T16:24:27;8.87;;;5.33;;
40150;SDS011;25866;52.420;10.640;2022-12-18T16:26:55;11.73;;;5.33;;
40150;SDS011;25866;52.420;10.640;2022-12-18T16:29:24;8.30;;;4.70;;
40150;SDS011;25866;52.420;10.640;2022-12-18T16:31:59;10.37;;;5.73;;
40150;SDS011;25866;52.420;10.640;2022-12-18T16:34:29;10.70;;;5.13;;
40150;SDS011;25866;52.420;10.640;2022-12-18T16:36:57;7.60;;;5.13;;
40150;SDS011;25866;52.420;10.640;2022-12-18T16:39:24;8.57;;;5.10;;
40150;SDS011;25866;52.420;10.640;2022-12-18T16:41:51;10.33;;;5.43;;
40150;SDS011;25866;52.420;10.640;2022-12-18T16:44:16;9.00;;;5.40;;
40150;SDS011;25866;52.420;10.640;2022-12-18T16:46:43;12.00;;;6.20;;
40150;SDS011;25866;52.420;10.640;2022-12-18T16:49:11;8.77;;;5.80;;
40150;SDS011;25866;52.420;10.640;2022-12-18T16:51:37;8.73;;;5.50;;
40150;SDS011;25866;52.420;10.640;2022-12-18T16:54:03;11.77;;;6.00;;
40150;SDS011;25866;52.420;10.640;2022-12-18T16:56:30;10.83;;;5.60;;
40150;SDS011;25866;52.420;10.640;2022-12-18T16:58:57;8.63;;;5.20;;